createdAt,value
2018-12-27T00:02:25.791Z,84.16
2018-12-27T00:05:01.925Z,84.13
2018-12-27T00:07:33.621Z,84.17
2018-12-27T00:10:04.657Z,84.12
2018-12-27T00:12:35.550Z,84.13
2018-12-27T00:15:06.073Z,84.12
2018-12-27T00:17:36.388Z,84.14
2018-12-27T00:20:06.768Z,84.13
2018-12-27T00:22:37.123Z,84.12
2018-12-27T00:25:07.446Z,84.10
2018-12-27T00:27:37.799Z,84.10
2018-12-27T00:30:14.342Z,84.09
2018-12-27T00:32:44.749Z,84.07
2018-12-27T00:35:15.174Z,84.07
2018-12-27T00:37:45.623Z,84.03
2018-12-27T00:40:16.007Z,84.05
2018-12-27T00:42:46.302Z,84.06
2018-12-27T00:45:16.733Z,84.05
2018-12-27T00:47:49.216Z,84.04
2018-12-27T00:50:19.796Z,84.01
2018-12-27T00:52:50.274Z,84.03
2018-12-27T00:55:20.661Z,84.02
2018-12-27T00:57:50.996Z,84.00
2018-12-27T01:03:13.200Z,83.96
2018-12-27T01:05:43.548Z,83.95
2018-12-27T01:08:13.858Z,83.95
2018-12-27T01:10:50.082Z,83.92
2018-12-27T01:13:20.498Z,83.94
2018-12-27T01:15:52.632Z,83.92
2018-12-27T01:18:23.126Z,83.92
2018-12-27T01:20:53.577Z,83.91
2018-12-27T01:23:23.932Z,83.92
2018-12-27T01:25:54.366Z,83.88
2018-12-27T01:28:49.543Z,83.91
2018-12-27T01:31:20.229Z,83.91
2018-12-27T01:33:50.566Z,83.88
2018-12-27T01:36:20.983Z,83.88
2018-12-27T01:38:51.303Z,83.89
2018-12-27T01:41:36.256Z,83.87
2018-12-27T01:44:03.411Z,83.84
2018-12-27T01:46:34.159Z,83.83
2018-12-27T01:49:04.781Z,83.81
2018-12-27T01:51:35.209Z,83.80
2018-12-27T01:54:05.614Z,83.77
2018-12-27T01:56:36.203Z,83.74
2018-12-27T01:59:06.515Z,83.74
2018-12-27T02:01:37.004Z,83.74
2018-12-27T02:04:07.449Z,83.73
2018-12-27T02:06:44.211Z,83.71
2018-12-27T02:09:14.550Z,83.70
2018-12-27T02:11:51.120Z,83.71
2018-12-27T02:14:21.513Z,83.69
2018-12-27T02:16:51.952Z,83.70
2018-12-27T02:19:22.376Z,83.68
2018-12-27T02:21:52.720Z,83.64
2018-12-27T02:24:23.043Z,83.64
2018-12-27T02:26:53.472Z,83.64
2018-12-27T02:32:21.703Z,83.63
2018-12-27T02:34:52.195Z,83.61
2018-12-27T02:37:22.555Z,83.61
2018-12-27T02:39:53.326Z,83.60
2018-12-27T02:42:29.545Z,83.56
2018-12-27T02:44:59.950Z,83.60
2018-12-27T02:47:30.290Z,83.57
2018-12-27T02:50:00.590Z,83.55
2018-12-27T02:52:30.875Z,83.56
2018-12-27T02:55:01.627Z,83.55
2018-12-27T03:00:21.792Z,83.51
2018-12-27T03:02:58.497Z,83.49
2018-12-27T03:05:28.943Z,83.48
2018-12-27T03:07:59.297Z,83.50
2018-12-27T03:10:30.306Z,83.47
2018-12-27T03:13:00.867Z,83.47
2018-12-27T03:15:33.291Z,83.50
2018-12-27T03:18:03.767Z,83.49
2018-12-27T03:20:40.525Z,83.46
2018-12-27T03:23:17.329Z,83.48
2018-12-27T03:25:47.818Z,83.46
2018-12-27T03:28:18.622Z,83.48
2018-12-27T03:30:49.029Z,83.49
2018-12-27T03:33:19.338Z,83.46
2018-12-27T03:39:14.013Z,83.42
2018-12-27T03:41:44.439Z,83.40
2018-12-27T03:44:14.931Z,83.39
2018-12-27T03:47:04.534Z,83.36
2018-12-27T03:49:35.190Z,83.35
2018-12-27T03:52:05.555Z,83.34
2018-12-27T03:54:35.849Z,83.31
2018-12-27T03:57:06.325Z,83.34
2018-12-27T03:59:38.668Z,83.34
2018-12-27T04:02:09.027Z,83.33
2018-12-27T04:04:39.396Z,83.33
2018-12-27T04:07:16.531Z,83.30
2018-12-27T04:09:46.962Z,83.30
2018-12-27T04:12:18.101Z,83.33
2018-12-27T04:15:08.314Z,83.32
2018-12-27T04:17:38.835Z,83.32
2018-12-27T04:22:52.659Z,83.30
2018-12-27T04:28:24.926Z,83.28
2018-12-27T04:30:55.344Z,83.29
2018-12-27T04:33:45.671Z,83.26
2018-12-27T04:36:36.461Z,83.26
2018-12-27T04:39:08.290Z,83.28
2018-12-27T04:44:48.494Z,83.23
2018-12-27T04:47:18.865Z,83.27
2018-12-27T04:49:49.436Z,83.28
2018-12-27T04:52:19.789Z,83.28
2018-12-27T04:54:50.173Z,83.26
2018-12-27T04:57:20.479Z,83.29
2018-12-27T04:59:56.903Z,83.28
2018-12-27T05:02:28.859Z,83.26
2018-12-27T05:04:59.205Z,83.24
2018-12-27T05:07:29.539Z,83.25
2018-12-27T05:09:59.875Z,83.24
2018-12-27T05:12:30.207Z,83.23
2018-12-27T05:15:00.626Z,83.24
2018-12-27T05:17:30.996Z,83.22
2018-12-27T05:20:01.302Z,83.23
2018-12-27T05:22:31.617Z,83.24
2018-12-27T05:25:01.962Z,83.24
2018-12-27T05:27:45.620Z,83.22
2018-12-27T05:30:17.000Z,83.24
2018-12-27T05:32:47.389Z,83.22
2018-12-27T05:35:17.703Z,83.22
2018-12-27T05:37:47.999Z,83.18
2018-12-27T05:43:18.895Z,83.23
2018-12-27T05:45:50.847Z,83.26
2018-12-27T05:48:21.205Z,83.25
2018-12-27T05:50:51.631Z,83.23
2018-12-27T05:53:24.464Z,83.25
2018-12-27T05:55:54.806Z,83.26
2018-12-27T05:58:25.233Z,83.26
2018-12-27T06:00:55.526Z,83.26
2018-12-27T06:03:25.859Z,83.28
2018-12-27T06:05:56.178Z,83.28
2018-12-27T06:08:26.615Z,83.30
2018-12-27T06:13:39.543Z,83.32
2018-12-27T06:16:09.910Z,83.28
2018-12-27T06:18:40.488Z,83.31
2018-12-27T06:21:10.763Z,83.30
2018-12-27T06:23:41.143Z,83.32
2018-12-27T06:26:18.308Z,83.31
2018-12-27T06:31:31.156Z,83.30
2018-12-27T06:34:03.844Z,83.31
2018-12-27T06:36:34.182Z,83.33
2018-12-27T06:42:07.511Z,83.32
2018-12-27T06:44:37.831Z,83.33
2018-12-27T06:47:08.637Z,83.31
2018-12-27T06:49:38.960Z,83.32
2018-12-27T06:52:09.265Z,83.33
2018-12-27T06:54:39.592Z,83.32
2018-12-27T06:57:09.988Z,83.32
2018-12-27T06:59:40.307Z,83.34
2018-12-27T07:02:28.831Z,83.34
2018-12-27T07:04:57.941Z,83.34
2018-12-27T07:07:28.867Z,83.37
2018-12-27T07:12:48.860Z,83.42
2018-12-27T07:15:19.254Z,83.42
2018-12-27T07:17:49.662Z,83.42
2018-12-27T07:20:19.993Z,83.42
2018-12-27T07:22:56.612Z,83.41
2018-12-27T07:25:27.086Z,83.45
2018-12-27T07:27:57.483Z,83.45
2018-12-27T07:30:27.798Z,83.46
2018-12-27T07:32:58.130Z,83.46
2018-12-27T07:35:30.225Z,83.48
2018-12-27T07:38:00.582Z,83.52
2018-12-27T07:40:30.900Z,83.51
2018-12-27T07:43:01.238Z,83.53
2018-12-27T07:45:31.548Z,83.50
2018-12-27T07:48:01.956Z,83.49
2018-12-27T07:50:32.274Z,83.50
2018-12-27T07:53:07.233Z,83.48
2018-12-27T07:55:37.636Z,83.49
2018-12-27T07:58:07.969Z,83.50
2018-12-27T08:01:17.849Z,83.50
2018-12-27T08:03:48.455Z,83.55
2018-12-27T08:06:18.810Z,83.58
2018-12-27T08:08:55.478Z,83.57
2018-12-27T08:11:25.951Z,83.58
2018-12-27T08:14:16.830Z,83.60
2018-12-27T08:16:47.223Z,83.61
2018-12-27T08:19:23.851Z,83.60
2018-12-27T08:22:13.298Z,83.59
2018-12-27T08:24:44.062Z,83.58
2018-12-27T08:27:14.381Z,83.63
2018-12-27T08:29:44.750Z,83.65
2018-12-27T08:32:21.256Z,83.67
2018-12-27T08:38:00.913Z,83.72
2018-12-27T08:40:31.275Z,83.75
2018-12-27T08:43:01.930Z,83.78
2018-12-27T08:45:32.286Z,83.81
2018-12-27T08:48:54.759Z,83.81
2018-12-27T08:52:19.468Z,83.82
2018-12-27T08:55:12.021Z,83.86
2018-12-27T14:16:22.582Z,84.72
2018-12-27T14:18:53.411Z,84.71
2018-12-27T14:21:25.963Z,84.71
2018-12-27T14:23:59.343Z,84.68
2018-12-27T14:29:16.543Z,84.66
2018-12-27T14:31:47.456Z,84.66
2018-12-27T14:34:18.281Z,84.67
2018-12-27T14:36:49.156Z,84.68
2018-12-27T14:39:34.310Z,84.65
2018-12-27T14:41:57.466Z,84.64
2018-12-27T14:44:46.916Z,84.64
2018-12-27T14:47:17.334Z,84.65
2018-12-27T14:49:47.687Z,84.62
2018-12-27T14:52:18.048Z,84.65
2018-12-27T14:54:48.449Z,84.66
2018-12-27T14:57:18.918Z,84.66
2018-12-27T14:59:49.242Z,84.66
2018-12-27T15:02:19.707Z,84.67
2018-12-27T15:04:50.022Z,84.66
2018-12-27T15:10:10.545Z,84.65
2018-12-27T15:12:40.940Z,84.67
2018-12-27T15:15:11.265Z,84.67
2018-12-27T15:17:41.706Z,84.67
2018-12-27T15:20:12.288Z,84.67
2018-12-27T15:22:42.652Z,84.70
2018-12-27T15:25:12.999Z,84.70
2018-12-27T15:28:08.954Z,84.71
2018-12-27T15:30:39.315Z,84.70
2018-12-27T15:33:10.097Z,84.69
2018-12-27T15:35:40.784Z,84.73
2018-12-27T15:38:13.375Z,84.73
2018-12-27T15:40:43.726Z,84.75
2018-12-27T15:43:20.628Z,84.74
2018-12-27T15:45:51.269Z,84.74
2018-12-27T15:48:27.866Z,84.72
2018-12-27T15:50:58.309Z,84.70
2018-12-27T15:53:28.897Z,84.74
2018-12-27T15:58:30.707Z,84.75
2018-12-27T16:01:01.078Z,84.74
2018-12-27T16:03:31.411Z,84.74
2018-12-27T16:06:03.896Z,84.73
2018-12-27T16:08:34.188Z,84.74
2018-12-27T16:11:04.648Z,84.75
2018-12-27T16:13:42.585Z,84.73
2018-12-27T16:16:14.992Z,84.73
2018-12-27T16:18:45.560Z,84.74
2018-12-27T16:21:15.940Z,84.75
2018-12-27T16:23:46.386Z,84.74
2018-12-27T16:26:22.888Z,84.74
2018-12-27T16:28:53.379Z,84.76
2018-12-27T16:31:23.716Z,84.77
2018-12-27T16:33:54.483Z,84.76
2018-12-27T16:36:30.997Z,84.76
2018-12-27T16:39:01.327Z,84.78
2018-12-27T16:41:31.766Z,84.79
2018-12-27T16:44:02.225Z,84.80
2018-12-27T16:46:33.065Z,84.80
2018-12-27T16:49:03.393Z,84.80
2018-12-27T16:51:53.219Z,84.82
2018-12-27T16:54:23.852Z,84.86
2018-12-27T16:56:54.207Z,84.83
2018-12-27T16:59:24.660Z,84.86
2018-12-27T17:04:44.713Z,84.87
2018-12-27T17:07:16.201Z,84.88
2018-12-27T17:09:57.327Z,84.87
2018-12-27T17:12:29.327Z,84.87
2018-12-27T17:15:20.841Z,84.88
2018-12-27T17:17:53.263Z,84.89
2018-12-27T17:20:23.714Z,84.89
2018-12-27T17:22:54.088Z,84.90
2018-12-27T17:25:24.505Z,84.89
2018-12-27T17:28:14.680Z,84.90
2018-12-27T17:34:10.761Z,84.90
2018-12-27T17:36:39.787Z,84.91
2018-12-27T17:39:49.579Z,84.90
2018-12-27T17:42:19.927Z,84.89
2018-12-27T17:44:50.530Z,84.90
2018-12-27T17:47:20.843Z,84.89
2018-12-27T17:49:51.148Z,84.89
2018-12-27T17:52:21.598Z,84.90
2018-12-27T17:54:52.360Z,84.87
2018-12-27T17:57:22.688Z,84.90
2018-12-27T17:59:53.029Z,84.89
2018-12-27T18:02:23.742Z,84.91
2018-12-27T18:07:56.876Z,84.93
2018-12-27T18:10:27.214Z,84.92
2018-12-27T18:13:03.754Z,84.94
2018-12-27T18:15:34.084Z,84.92
2018-12-27T18:18:04.449Z,84.95
2018-12-27T18:20:34.860Z,84.95
2018-12-27T18:23:11.392Z,84.92
2018-12-27T18:25:41.818Z,84.94
2018-12-27T18:28:12.691Z,84.95
2018-12-27T18:30:43.000Z,84.98
2018-12-27T18:33:13.358Z,84.97
2018-12-27T18:35:43.708Z,84.95
2018-12-27T18:38:14.109Z,84.98
2018-12-27T18:40:44.474Z,84.99
2018-12-27T18:43:14.881Z,85.00
2018-12-27T18:45:51.481Z,85.01
2018-12-27T18:48:21.835Z,85.02
2018-12-27T18:50:52.208Z,85.02
2018-12-27T18:53:22.675Z,85.02
2018-12-27T18:55:53.094Z,85.05
2018-12-27T18:58:23.523Z,85.04
2018-12-27T19:00:53.882Z,85.07
2018-12-27T19:09:16.341Z,85.07
2018-12-27T19:12:26.199Z,85.09
2018-12-27T19:15:01.365Z,85.11
2018-12-27T19:18:08.591Z,85.09
2018-12-27T19:20:40.598Z,85.10
2018-12-27T19:23:15.407Z,85.11
2018-12-27T19:25:45.744Z,85.11
2018-12-27T19:28:16.087Z,85.09
2018-12-27T19:30:46.355Z,85.12
2018-12-27T19:33:35.847Z,85.11
2018-12-27T19:39:09.175Z,85.12
2018-12-27T19:41:39.544Z,85.10
2018-12-27T19:44:10.200Z,85.10
2018-12-27T19:46:40.557Z,85.11
2018-12-27T19:49:22.875Z,85.08
2018-12-27T19:51:56.604Z,85.08
2018-12-27T19:54:31.879Z,85.09
2018-12-27T19:57:09.060Z,85.10
2018-12-27T19:59:39.447Z,85.09
2018-12-27T20:02:10.021Z,85.11
2018-12-27T20:04:40.429Z,85.13
2018-12-27T20:07:11.060Z,85.12
2018-12-27T20:10:00.586Z,85.10
2018-12-27T20:12:34.397Z,85.10
2018-12-27T20:15:04.785Z,85.10
2018-12-27T20:17:37.387Z,85.11
2018-12-27T20:20:32.724Z,85.11
2018-12-27T20:23:09.381Z,85.09
2018-12-27T20:25:39.754Z,85.11
2018-12-27T20:28:10.131Z,85.11
2018-12-27T20:30:40.429Z,85.11
2018-12-27T20:33:10.727Z,85.09
2018-12-27T20:35:43.459Z,85.09
2018-12-27T20:38:14.138Z,85.11
2018-12-27T20:40:44.487Z,85.11
2018-12-27T20:43:14.831Z,85.11
2018-12-27T20:45:51.683Z,85.11
2018-12-27T20:48:22.170Z,85.13
2018-12-27T20:50:52.509Z,85.15
2018-12-27T20:53:22.907Z,85.13
2018-12-27T20:55:53.240Z,85.13
2018-12-27T20:58:23.570Z,85.13
2018-12-27T21:00:53.876Z,85.15
2018-12-27T21:03:24.192Z,85.15
2018-12-27T21:05:54.679Z,85.17
2018-12-27T21:08:45.243Z,85.18
2018-12-27T21:11:15.620Z,85.18
2018-12-27T21:13:45.931Z,85.19
2018-12-27T21:16:16.245Z,85.22
2018-12-27T21:18:46.589Z,85.22
2018-12-27T21:21:16.935Z,85.22
2018-12-27T21:23:49.409Z,85.23
2018-12-27T21:26:26.198Z,85.22
2018-12-27T21:28:56.523Z,85.25
2018-12-27T21:31:26.866Z,85.25
2018-12-27T21:33:57.222Z,85.28
2018-12-27T21:36:27.673Z,85.25
2018-12-27T21:39:18.625Z,85.28
2018-12-27T21:41:49.095Z,85.29
2018-12-27T21:44:44.459Z,85.30
2018-12-27T21:47:15.080Z,85.31
2018-12-27T21:49:45.391Z,85.32
2018-12-27T21:55:25.518Z,85.33
2018-12-27T21:57:55.921Z,85.35
2018-12-27T22:00:26.247Z,85.33
2018-12-27T22:02:56.860Z,85.36
2018-12-27T22:05:27.234Z,85.37
2018-12-27T22:07:57.683Z,85.37
2018-12-27T22:10:28.039Z,85.38
2018-12-27T22:12:58.409Z,85.38
2018-12-27T22:15:28.869Z,85.38
2018-12-27T22:17:59.197Z,85.40
2018-12-27T22:20:29.490Z,85.38
2018-12-27T22:23:05.867Z,85.42
2018-12-27T22:25:36.295Z,85.40
2018-12-27T22:28:06.636Z,85.44
2018-12-27T22:30:37.058Z,85.38
2018-12-27T22:33:07.546Z,85.44
2018-12-27T22:35:38.004Z,85.45
2018-12-27T22:38:08.434Z,85.48
2018-12-27T22:40:38.819Z,85.48
2018-12-27T22:46:25.586Z,85.49
2018-12-27T22:48:56.009Z,85.49
2018-12-27T22:51:26.369Z,85.47
2018-12-27T22:53:56.731Z,85.49
2018-12-27T22:56:27.130Z,85.47
2018-12-27T22:58:57.515Z,85.49
2018-12-27T23:01:29.828Z,85.49
2018-12-27T23:04:01.875Z,85.47
2018-12-27T23:06:32.272Z,85.49
2018-12-27T23:09:02.631Z,85.49
2018-12-27T23:11:32.999Z,85.48
2018-12-27T23:14:03.307Z,85.50
2018-12-27T23:19:33.000Z,85.49
2018-12-27T23:22:03.309Z,85.48
2018-12-27T23:24:41.781Z,85.46
2018-12-27T23:27:12.214Z,85.47
2018-12-27T23:29:42.494Z,85.46
2018-12-27T23:32:12.871Z,85.44
2018-12-27T23:34:43.465Z,85.44
2018-12-27T23:37:19.648Z,85.43
2018-12-27T23:39:50.053Z,85.45
2018-12-27T23:42:20.375Z,85.43
2018-12-27T23:44:50.782Z,85.44
2018-12-27T23:47:21.226Z,85.45
2018-12-27T23:49:51.545Z,85.41
2018-12-27T23:55:03.837Z,85.45
2018-12-27T23:57:34.526Z,85.48
